Terminal Aerodrome Forecast
Issued by NWS

Home | Current Version | Previous Version | Text Only | Print | Product List | Glossary On
Versions: 1 2 3 4 5 6 7 8 9 10 11 12 13 14 15 16 17 18 19 20 21 22 23 24 25 26
147
FTUS42 KGSP 081731
TAFHKY
TAF
KHKY 081731Z 0818/0918 23005KT P6SM OVC070
      TEMPO 0819/0823 5SM -SHRA BR OVC035
     FM090000 25006KT P6SM BKN070
     FM091100 27006KT P6SM SCT070
     FM091500 28010KT P6SM BKN150=

USA.gov is the U.S. government's official web portal to all federal, state and local government web resources and services.